To NAV CANADA Home Page Login to a new session Search on AWWS site Feedback and Comments Disclaimer Vers la page française équivalente Tips FAQ What's new on the site To the Forecasts and Observations / NOTAM section To "File a Flight Plan" website Publications and other links Update of the User's profile FIC Telephone Numbers My Weather Data Folder Route Weather Data Regional Weather Data Local Weather Data To the Forecasts and Observations / NOTAM section
Request Generated 07/25/2016 at 15:58:16 UTC . Weather information available at that time is displayed.

METAR/TAF

FARO/YT    

METAR CZFA 251500Z 09002KT 30SM FEW055 SCT075 SCT100 BKN240 11/10
A2984 RMK SC2AC1AC1CI1 SLP120 DENSITY ALT 2500FT=
METAR CZFA 251400Z 20003KT 130V220 30SM FEW060 SCT085 BKN240 10/10
A2983 RMK SC2AC2CI2 SLP118 DENSITY ALT 2400FT=
METAR CZFA 251300Z 00000KT 30SM VCFG FEW060 SCT080 BKN100 BKN220
10/10 A2982 RMK SC2AC2AC1CI2 FG OVR RVR CLIMAT 16.2/9.2/2.8MM
SLP116 DENSITY ALT 2400FT=

TAF CZFA 251438Z 2515/2601 VRB03KT P6SM FEW060 BKN240
BECMG 2516/2518 28010KT
FM251800 28010KT P6SM BKN060
RMK NXT FCST BY 251800Z=
Your time UTC time
Weather data provided by Environment Canada and NAV CANADA